createdAt,value
2019-04-30T00:00:46.471Z,96651.48
2019-04-30T00:03:24.911Z,96644.95
2019-04-30T00:05:57.360Z,96643.31
2019-04-30T00:08:30.165Z,96639.08
2019-04-30T00:10:59.563Z,96642.02
2019-04-30T00:13:30.035Z,96627.83
2019-04-30T00:16:01.678Z,96626.37
2019-04-30T00:18:37.888Z,96626.03
2019-04-30T00:21:05.476Z,96614.30
2019-04-30T00:23:36.157Z,96614.97
2019-04-30T00:26:10.383Z,96618.21
2019-04-30T00:28:39.373Z,96622.80
2019-04-30T00:31:10.807Z,96621.64
2019-04-30T00:33:41.252Z,96628.34
2019-04-30T00:36:11.817Z,96625.40
2019-04-30T00:38:42.306Z,96621.48
2019-04-30T00:41:12.753Z,96619.84
2019-04-30T00:43:49.291Z,96619.52
2019-04-30T00:46:17.427Z,96622.78
2019-04-30T00:48:47.688Z,96614.14
2019-04-30T00:51:20.986Z,96608.11
2019-04-30T00:53:51.215Z,96608.77
2019-04-30T00:56:24.766Z,96599.97
2019-04-30T00:58:57.569Z,96588.72
2019-04-30T01:01:48.976Z,96584.64
2019-04-30T01:04:28.086Z,96584.50
2019-04-30T01:07:00.178Z,96586.30
2019-04-30T01:09:29.300Z,96580.73
2019-04-30T01:11:59.568Z,96583.66
2019-04-30T01:14:31.923Z,96579.41
2019-04-30T01:17:03.679Z,96592.78
2019-04-30T01:19:34.397Z,96594.42
2019-04-30T01:22:04.911Z,96582.50
2019-04-30T01:24:35.429Z,96574.87
2019-04-30T01:27:07.021Z,96568.98
2019-04-30T01:29:44.108Z,96564.41
2019-04-30T01:32:16.695Z,96564.11
2019-04-30T01:34:44.206Z,96558.38
2019-04-30T01:37:14.693Z,96555.61
2019-04-30T01:39:45.130Z,96560.86
2019-04-30T01:42:15.511Z,96559.36
2019-04-30T01:44:50.457Z,96564.42
2019-04-30T01:47:21.482Z,96557.27
2019-04-30T01:49:50.122Z,96555.30
2019-04-30T01:52:20.542Z,96545.19
2019-04-30T01:54:50.846Z,96550.90
2019-04-30T01:57:39.095Z,96546.50
2019-04-30T02:00:20.778Z,96550.41
2019-04-30T02:02:51.236Z,96547.80
2019-04-30T02:05:21.678Z,96547.65
2019-04-30T02:07:52.088Z,96546.98
2019-04-30T02:10:22.540Z,96540.94
2019-04-30T02:12:53.021Z,96535.72
2019-04-30T02:15:23.414Z,96533.11
2019-04-30T02:17:53.840Z,96535.41
2019-04-30T02:20:24.255Z,96524.49
2019-04-30T02:22:54.623Z,96527.57
2019-04-30T02:25:25.052Z,96523.52
2019-04-30T02:27:55.523Z,96529.55
2019-04-30T02:30:25.999Z,96531.19
2019-04-30T02:33:00.106Z,96528.88
2019-04-30T02:35:53.889Z,96529.06
2019-04-30T02:38:31.078Z,96526.27
2019-04-30T02:41:02.441Z,96523.52
2019-04-30T02:43:34.006Z,96526.13
2019-04-30T02:46:09.463Z,96526.28
2019-04-30T02:48:40.063Z,96523.02
2019-04-30T02:51:13.466Z,96529.22
2019-04-30T02:54:13.755Z,96532.48
2019-04-30T02:56:46.277Z,96528.58
2019-04-30T02:59:16.674Z,96534.27
2019-04-30T03:01:49.909Z,96530.18
2019-04-30T03:04:19.760Z,96523.99
2019-04-30T03:06:50.582Z,96522.22
2019-04-30T03:09:21.052Z,96524.14
2019-04-30T03:11:51.487Z,96525.45
2019-04-30T03:14:21.872Z,96523.66
2019-04-30T03:17:04.430Z,96525.63
2019-04-30T03:19:43.789Z,96524.96
2019-04-30T03:22:25.872Z,96524.32
2019-04-30T03:24:56.325Z,96523.02
2019-04-30T03:27:26.693Z,96524.66
2019-04-30T03:29:59.969Z,96522.05
2019-04-30T03:32:31.551Z,96513.39
2019-04-30T03:35:03.123Z,96509.31
2019-04-30T03:37:33.554Z,96505.73
2019-04-30T03:40:04.081Z,96506.06
2019-04-30T03:42:34.575Z,96516.01
2019-04-30T03:45:05.309Z,96514.53
2019-04-30T03:47:35.708Z,96518.77
2019-04-30T03:50:06.439Z,96518.62
2019-04-30T03:52:39.245Z,96519.44
2019-04-30T03:55:09.493Z,96517.48
2019-04-30T03:57:40.102Z,96517.80
2019-04-30T04:00:12.914Z,96517.80
2019-04-30T04:02:45.445Z,96510.63
2019-04-30T04:05:34.756Z,96514.88
2019-04-30T04:08:22.755Z,96515.85
2019-04-30T04:11:00.618Z,96513.24
2019-04-30T04:13:33.141Z,96521.70
2019-04-30T04:16:04.909Z,96525.45
2019-04-30T04:18:35.378Z,96528.06
2019-04-30T04:21:11.362Z,96520.72
2019-04-30T04:23:39.903Z,96522.52
2019-04-30T04:26:10.133Z,96518.93
2019-04-30T04:28:43.153Z,96513.56
2019-04-30T04:31:12.720Z,96514.38
2019-04-30T04:33:43.172Z,96512.42
2019-04-30T04:36:13.599Z,96505.38
2019-04-30T04:38:43.937Z,96502.77
2019-04-30T04:41:14.325Z,96513.55
2019-04-30T04:43:44.744Z,96521.05
2019-04-30T04:46:15.229Z,96520.73
2019-04-30T04:48:45.545Z,96525.63
2019-04-30T04:51:31.432Z,96527.58
2019-04-30T04:53:50.077Z,96524.47
2019-04-30T04:56:20.335Z,96527.27
2019-04-30T04:58:50.780Z,96524.17
2019-04-30T05:01:21.241Z,96522.03
2019-04-30T05:03:51.731Z,96523.02
2019-04-30T05:06:22.414Z,96529.53
2019-04-30T05:08:52.946Z,96525.27
2019-04-30T05:11:23.417Z,96530.17
2019-04-30T05:13:53.835Z,96527.73
2019-04-30T05:16:24.401Z,96527.55
2019-04-30T05:18:54.862Z,96531.95
2019-04-30T05:21:25.474Z,96530.48
2019-04-30T05:23:55.753Z,96534.23
2019-04-30T05:26:26.206Z,96523.45
2019-04-30T05:28:56.711Z,96531.63
2019-04-30T05:31:28.947Z,96527.38
2019-04-30T05:33:59.413Z,96538.64
2019-04-30T05:36:29.845Z,96541.25
2019-04-30T05:39:00.237Z,96544.00
2019-04-30T05:41:30.677Z,96547.76
2019-04-30T05:44:01.100Z,96546.30
2019-04-30T05:46:31.509Z,96543.83
2019-04-30T05:49:01.918Z,96547.25
2019-04-30T05:51:32.327Z,96548.23
2019-04-30T05:54:02.771Z,96546.61
2019-04-30T05:56:33.139Z,96542.53
2019-04-30T05:59:03.586Z,96546.11
2019-04-30T06:01:34.083Z,96544.47
2019-04-30T06:04:04.525Z,96549.66
2019-04-30T06:06:34.959Z,96547.66
2019-04-30T06:09:14.813Z,96543.39
2019-04-30T06:12:12.053Z,96547.61
2019-04-30T06:14:49.897Z,96549.90
2019-04-30T06:17:20.205Z,96547.61
2019-04-30T06:19:51.403Z,96550.41
2019-04-30T06:22:22.624Z,96551.55
2019-04-30T06:24:53.049Z,96547.99
2019-04-30T06:27:23.582Z,96548.97
2019-04-30T06:29:54.112Z,96552.53
2019-04-30T06:32:24.585Z,96560.05
2019-04-30T06:34:55.146Z,96550.90
2019-04-30T06:37:25.723Z,96554.19
2019-04-30T06:39:56.111Z,96554.19
2019-04-30T06:42:26.585Z,96555.50
2019-04-30T06:44:56.875Z,96562.98
2019-04-30T06:47:33.116Z,96569.54
2019-04-30T06:50:01.316Z,96566.27
2019-04-30T06:52:31.863Z,96570.54
2019-04-30T06:55:02.322Z,96567.25
2019-04-30T06:57:32.790Z,96567.91
2019-04-30T07:00:03.263Z,96563.18
2019-04-30T07:02:33.757Z,96566.08
2019-04-30T07:05:04.230Z,96560.96
2019-04-30T07:07:38.695Z,96561.20
2019-04-30T07:10:35.606Z,96568.97
2019-04-30T07:13:18.765Z,96567.30
2019-04-30T07:15:49.299Z,96572.79
2019-04-30T07:18:19.626Z,96576.34
2019-04-30T07:20:49.987Z,96576.95
2019-04-30T07:23:20.382Z,96576.27
2019-04-30T07:25:51.774Z,96575.27
2019-04-30T07:28:40.115Z,96572.95
2019-04-30T07:31:07.671Z,96572.66
2019-04-30T07:33:26.772Z,96581.05
2019-04-30T07:36:01.527Z,96583.54
2019-04-30T07:38:29.560Z,96584.88
2019-04-30T07:41:00.017Z,96587.86
2019-04-30T07:43:30.399Z,96592.90
2019-04-30T07:46:00.752Z,96593.55
2019-04-30T07:48:31.143Z,96597.92
2019-04-30T07:51:01.554Z,96597.60
2019-04-30T07:53:32.001Z,96598.91
2019-04-30T07:56:20.818Z,96591.34
2019-04-30T07:58:34.522Z,96594.57
2019-04-30T08:01:04.991Z,96595.05
2019-04-30T08:03:55.140Z,96599.47
2019-04-30T08:06:25.730Z,96609.46
2019-04-30T08:08:59.850Z,96609.17
2019-04-30T08:11:29.314Z,96607.38
2019-04-30T08:14:00.035Z,96609.97
2019-04-30T08:16:30.703Z,96608.14
2019-04-30T08:19:01.088Z,96614.78
2019-04-30T08:21:31.498Z,96615.62
2019-04-30T08:24:01.889Z,96596.74
2019-04-30T08:26:32.357Z,96604.83
2019-04-30T08:29:02.827Z,96599.95
2019-04-30T08:31:33.208Z,96602.80
2019-04-30T08:34:03.670Z,96607.09
2019-04-30T08:36:34.057Z,96601.41
2019-04-30T08:39:05.989Z,96618.89
2019-04-30T08:41:36.343Z,96616.20
2019-04-30T08:44:06.960Z,96626.33
2019-04-30T08:46:38.769Z,96622.73
2019-04-30T08:49:10.022Z,96627.73
2019-04-30T08:51:41.125Z,96628.12
2019-04-30T08:54:11.544Z,96630.84
2019-04-30T08:56:41.984Z,96626.77
2019-04-30T08:59:12.392Z,96621.98
2019-04-30T09:01:42.843Z,96625.15
2019-04-30T09:04:13.219Z,96617.90
2019-04-30T09:06:43.739Z,96612.03
2019-04-30T09:09:21.626Z,96613.01
2019-04-30T09:11:55.593Z,96608.61
2019-04-30T09:14:24.171Z,96618.09
2019-04-30T09:16:54.603Z,96620.98
2019-04-30T09:19:25.065Z,96628.48
2019-04-30T09:21:55.538Z,96629.27
2019-04-30T09:24:25.930Z,96624.44
2019-04-30T09:26:56.289Z,96622.20
2019-04-30T09:29:26.673Z,96625.07
2019-04-30T09:31:56.985Z,96622.24
2019-04-30T09:34:29.080Z,96620.56
2019-04-30T09:36:59.691Z,96622.28
2019-04-30T09:39:30.129Z,96638.53
2019-04-30T09:42:00.570Z,96635.59
2019-04-30T09:44:31.026Z,96630.91
2019-04-30T09:47:01.477Z,96646.59
2019-04-30T09:49:31.930Z,96646.02
2019-04-30T09:52:02.501Z,96634.22
2019-04-30T09:54:33.136Z,96639.12
2019-04-30T09:57:03.595Z,96637.03
2019-04-30T09:59:34.004Z,96630.74
2019-04-30T10:02:04.349Z,96626.03
2019-04-30T10:04:35.106Z,96627.95
2019-04-30T10:07:05.852Z,96624.20
2019-04-30T10:09:36.304Z,96637.34
2019-04-30T10:12:13.997Z,96621.13
2019-04-30T10:14:44.515Z,96625.36
2019-04-30T10:17:33.874Z,96621.39
2019-04-30T10:20:05.260Z,96616.65
2019-04-30T10:22:35.761Z,96617.87
2019-04-30T10:25:09.286Z,96617.31
2019-04-30T10:27:39.797Z,96620.95
2019-04-30T10:30:12.574Z,96611.56
2019-04-30T10:32:42.982Z,96613.44
2019-04-30T10:35:13.723Z,96615.57
2019-04-30T10:37:44.543Z,96618.59
2019-04-30T10:40:15.187Z,96618.64
2019-04-30T10:42:45.586Z,96621.69
2019-04-30T10:45:16.305Z,96617.27
2019-04-30T10:47:46.673Z,96600.33
2019-04-30T10:50:17.225Z,96602.80
2019-04-30T10:52:49.160Z,96615.41
2019-04-30T10:55:19.720Z,96606.16
2019-04-30T10:57:50.199Z,96601.94
2019-04-30T11:00:24.621Z,96601.56
2019-04-30T11:02:55.084Z,96596.55
2019-04-30T11:05:25.528Z,96599.36
2019-04-30T11:07:55.918Z,96594.28
2019-04-30T11:10:26.385Z,96592.36
2019-04-30T11:12:56.788Z,96584.49
2019-04-30T11:15:28.836Z,96591.84
2019-04-30T11:17:59.798Z,96588.91
2019-04-30T11:20:30.541Z,96586.70
2019-04-30T11:23:13.292Z,96587.41
2019-04-30T11:25:33.972Z,96586.27
2019-04-30T11:28:05.926Z,96587.91
2019-04-30T11:30:39.268Z,96584.52
2019-04-30T11:33:10.134Z,96582.12
2019-04-30T11:35:40.520Z,96581.48
2019-04-30T11:38:10.873Z,96585.13
2019-04-30T11:40:41.258Z,96575.39
2019-04-30T11:43:11.727Z,96575.31
2019-04-30T11:46:46.823Z,96572.08
2019-04-30T11:49:17.229Z,96592.94
2019-04-30T11:51:47.731Z,96572.56
2019-04-30T11:54:18.710Z,96579.22
2019-04-30T11:56:50.453Z,96581.76
2019-04-30T11:59:21.026Z,96574.75
2019-04-30T12:01:53.098Z,96572.48
2019-04-30T12:04:23.606Z,96581.30
2019-04-30T12:06:55.835Z,96575.20
2019-04-30T12:09:54.299Z,96572.91
2019-04-30T12:12:25.735Z,96585.47
2019-04-30T12:14:56.181Z,96578.05
2019-04-30T12:17:26.647Z,96575.16
2019-04-30T12:19:58.649Z,96578.95
2019-04-30T12:22:29.660Z,96576.06
2019-04-30T12:25:03.306Z,96566.92
2019-04-30T12:27:32.376Z,96582.17
2019-04-30T12:30:02.944Z,96568.22
2019-04-30T12:32:35.233Z,96569.18
2019-04-30T12:35:07.014Z,96566.09
2019-04-30T12:37:39.060Z,96565.56
2019-04-30T12:40:25.437Z,96569.17
2019-04-30T12:42:42.252Z,96562.47
2019-04-30T12:45:12.854Z,96562.11
2019-04-30T12:47:48.023Z,96557.80
2019-04-30T12:50:30.685Z,96556.92
2019-04-30T12:53:04.868Z,96550.92
2019-04-30T12:56:00.128Z,96555.05
2019-04-30T12:58:28.927Z,96553.40
2019-04-30T13:01:03.135Z,96548.52
2019-04-30T13:03:33.517Z,96549.73
2019-04-30T13:06:05.970Z,96553.44
2019-04-30T13:08:37.236Z,96556.92
2019-04-30T13:11:12.303Z,96551.55
2019-04-30T13:13:41.371Z,96551.35
2019-04-30T13:16:12.359Z,96542.92
2019-04-30T13:18:42.805Z,96551.78
2019-04-30T13:21:13.286Z,96552.71
2019-04-30T13:23:43.773Z,96546.27
2019-04-30T13:26:14.304Z,96547.61
2019-04-30T13:28:55.172Z,96555.56
2019-04-30T13:31:25.565Z,96543.03
2019-04-30T13:34:01.573Z,96547.30
2019-04-30T13:36:32.375Z,96541.66
2019-04-30T13:39:21.681Z,96544.05
2019-04-30T13:42:15.119Z,96539.81
2019-04-30T13:44:39.798Z,96539.81
2019-04-30T13:47:10.934Z,96542.36
2019-04-30T13:49:41.391Z,96536.95
2019-04-30T13:52:11.888Z,96533.87
2019-04-30T13:54:42.350Z,96543.69
2019-04-30T13:57:13.340Z,96536.54
2019-04-30T13:59:43.820Z,96544.43
2019-04-30T14:02:14.299Z,96537.81
2019-04-30T14:05:03.575Z,96540.59
2019-04-30T14:07:51.490Z,96544.98
2019-04-30T14:10:21.953Z,96551.36
2019-04-30T14:12:56.246Z,96542.77
2019-04-30T14:15:26.769Z,96542.98
2019-04-30T14:17:57.136Z,96541.26
2019-04-30T14:20:27.561Z,96534.91
2019-04-30T14:22:58.057Z,96541.07
2019-04-30T14:25:28.457Z,96537.01
2019-04-30T14:27:59.350Z,96532.73
2019-04-30T14:30:29.847Z,96536.88
2019-04-30T14:33:00.327Z,96537.38
2019-04-30T14:35:33.693Z,96535.34
2019-04-30T14:38:05.247Z,96536.16
2019-04-30T14:40:36.397Z,96534.92
2019-04-30T14:43:32.807Z,96530.93
2019-04-30T14:46:31.967Z,96529.53
2019-04-30T14:49:22.141Z,96531.52
2019-04-30T14:51:53.101Z,96542.58
2019-04-30T14:54:33.530Z,96541.03
2019-04-30T14:57:08.298Z,96546.13
2019-04-30T15:00:09.755Z,96542.61
2019-04-30T15:02:50.073Z,96538.33
2019-04-30T15:05:19.583Z,96546.86
2019-04-30T15:07:50.052Z,96545.76
2019-04-30T15:10:20.590Z,96543.83
2019-04-30T15:12:51.069Z,96542.42
2019-04-30T15:15:21.615Z,96541.11
2019-04-30T15:17:52.152Z,96544.53
2019-04-30T15:20:22.936Z,96542.17
2019-04-30T15:23:03.940Z,96542.85
2019-04-30T15:25:34.658Z,96531.86
2019-04-30T15:28:05.273Z,96538.71
2019-04-30T15:30:35.699Z,96523.47
2019-04-30T15:33:13.886Z,96532.30
2019-04-30T15:35:44.330Z,96536.45
2019-04-30T15:38:14.803Z,96530.14
2019-04-30T15:40:45.158Z,96531.98
2019-04-30T15:43:15.729Z,96533.69
2019-04-30T15:45:46.224Z,96538.38
2019-04-30T15:48:16.718Z,96534.13
2019-04-30T15:50:49.139Z,96532.36
2019-04-30T15:53:19.455Z,96530.63
2019-04-30T15:55:49.912Z,96534.59
2019-04-30T15:58:24.723Z,96533.96
2019-04-30T16:00:55.279Z,96536.97
2019-04-30T16:03:28.256Z,96528.88
2019-04-30T16:05:58.769Z,96532.87
2019-04-30T16:08:48.094Z,96526.05
2019-04-30T16:11:39.369Z,96527.28
2019-04-30T16:14:19.397Z,96529.00
2019-04-30T16:16:57.581Z,96534.65
2019-04-30T16:19:28.802Z,96528.66
2019-04-30T16:22:00.344Z,96526.71
2019-04-30T16:24:30.860Z,96518.78
2019-04-30T16:27:01.407Z,96516.22
2019-04-30T16:29:31.897Z,96516.50
2019-04-30T16:32:02.247Z,96516.34
2019-04-30T16:34:32.677Z,96514.15
2019-04-30T16:37:03.297Z,96505.94
2019-04-30T16:39:33.690Z,96517.13
2019-04-30T16:42:04.359Z,96511.23
2019-04-30T16:44:39.310Z,96519.41
2019-04-30T16:47:14.620Z,96520.38
2019-04-30T16:49:41.864Z,96523.16
2019-04-30T16:52:12.286Z,96516.69
2019-04-30T16:54:42.752Z,96519.27
2019-04-30T16:57:13.198Z,96519.50
2019-04-30T16:59:43.675Z,96511.72
2019-04-30T17:02:14.657Z,96515.20
2019-04-30T17:04:53.371Z,96513.84
2019-04-30T17:07:41.550Z,96510.70
2019-04-30T17:10:33.890Z,96512.48
2019-04-30T17:13:18.793Z,96524.64
2019-04-30T17:15:50.437Z,96527.23
2019-04-30T17:18:20.852Z,96532.81
2019-04-30T17:20:51.391Z,96527.97
2019-04-30T17:23:21.864Z,96534.68
2019-04-30T17:25:52.272Z,96534.06
2019-04-30T17:28:22.687Z,96536.59
2019-04-30T17:30:53.189Z,96539.73
2019-04-30T17:33:23.569Z,96538.95
2019-04-30T17:35:54.139Z,96539.76
2019-04-30T17:38:24.526Z,96540.96
2019-04-30T17:40:54.881Z,96545.40
2019-04-30T17:43:25.379Z,96541.13
2019-04-30T17:45:55.828Z,96549.55
2019-04-30T17:48:26.296Z,96547.63
2019-04-30T17:50:56.687Z,96548.42
2019-04-30T17:53:28.764Z,96552.02
2019-04-30T17:55:59.245Z,96554.02
2019-04-30T17:58:29.795Z,96560.91
2019-04-30T18:01:01.923Z,96566.86
2019-04-30T18:03:32.413Z,96563.92
2019-04-30T18:06:02.885Z,96568.49
2019-04-30T18:08:34.791Z,96566.86
2019-04-30T18:11:05.292Z,96565.23
2019-04-30T18:13:35.803Z,96564.33
2019-04-30T18:16:08.732Z,96564.28
2019-04-30T18:18:49.057Z,96568.09
2019-04-30T18:21:48.770Z,96570.19
2019-04-30T18:24:39.265Z,96571.75
2019-04-30T18:27:21.365Z,96575.72
2019-04-30T18:29:51.831Z,96575.27
2019-04-30T18:32:23.949Z,96585.22
2019-04-30T18:34:54.439Z,96593.11
2019-04-30T18:37:25.041Z,96595.52
2019-04-30T18:39:59.819Z,96590.48
2019-04-30T18:42:29.067Z,96597.14
2019-04-30T18:44:59.725Z,96590.80
2019-04-30T18:47:30.545Z,96595.05
2019-04-30T18:50:01.278Z,96598.77
2019-04-30T18:52:32.128Z,96590.48
2019-04-30T18:55:02.648Z,96598.38
2019-04-30T18:57:33.554Z,96597.14
2019-04-30T19:00:04.287Z,96594.65
2019-04-30T19:02:35.314Z,96596.41
2019-04-30T19:05:09.556Z,96601.44
2019-04-30T19:07:52.834Z,96604.70
2019-04-30T19:10:34.101Z,96606.09
2019-04-30T19:13:22.663Z,96617.92
2019-04-30T19:16:19.883Z,96614.22
2019-04-30T19:19:02.541Z,96612.90
2019-04-30T19:21:33.236Z,96606.23
2019-04-30T19:24:03.669Z,96618.10
2019-04-30T19:26:34.106Z,96622.20
2019-04-30T19:29:07.472Z,96621.77
2019-04-30T19:31:39.348Z,96623.83
2019-04-30T19:34:09.799Z,96622.02
2019-04-30T19:36:40.808Z,96626.14
2019-04-30T19:39:13.097Z,96631.31
2019-04-30T19:41:43.671Z,96630.17
2019-04-30T19:44:14.176Z,96631.80
2019-04-30T19:46:44.755Z,96628.72
2019-04-30T19:49:15.353Z,96633.48
2019-04-30T19:51:45.807Z,96636.66
2019-04-30T19:54:16.270Z,96629.28
2019-04-30T19:56:46.643Z,96638.80
2019-04-30T19:59:17.129Z,96637.70
2019-04-30T20:01:48.844Z,96638.97
2019-04-30T20:04:19.384Z,96637.65
2019-04-30T20:06:49.844Z,96639.10
2019-04-30T20:09:20.315Z,96634.63
2019-04-30T20:11:50.686Z,96638.89
2019-04-30T20:14:21.071Z,96642.83
2019-04-30T20:16:51.419Z,96641.64
2019-04-30T20:19:21.784Z,96639.01
2019-04-30T20:21:53.906Z,96641.18
2019-04-30T20:24:24.527Z,96642.25
2019-04-30T20:27:05.041Z,96640.86
2019-04-30T20:29:28.829Z,96638.67
2019-04-30T20:31:59.480Z,96643.42
2019-04-30T20:34:29.925Z,96646.05
2019-04-30T20:37:00.463Z,96636.25
2019-04-30T20:39:58.660Z,96635.62
2019-04-30T20:42:29.155Z,96638.74
2019-04-30T20:44:59.610Z,96636.44
2019-04-30T20:47:30.169Z,96637.07
2019-04-30T20:50:00.607Z,96637.50
2019-04-30T20:52:32.356Z,96635.86
2019-04-30T20:55:02.965Z,96632.42
2019-04-30T20:57:33.473Z,96638.49
2019-04-30T21:00:04.326Z,96635.69
2019-04-30T21:02:34.640Z,96631.61
2019-04-30T21:05:05.163Z,96634.94
2019-04-30T21:07:35.693Z,96631.00
2019-04-30T21:10:06.551Z,96633.31
2019-04-30T21:12:37.014Z,96630.05
2019-04-30T21:15:09.563Z,96638.32
2019-04-30T21:17:39.882Z,96638.61
2019-04-30T21:20:11.962Z,96635.69
2019-04-30T21:22:42.439Z,96639.99
2019-04-30T21:25:13.020Z,96639.81
2019-04-30T21:27:43.459Z,96640.23
2019-04-30T21:30:14.654Z,96634.06
2019-04-30T21:33:15.959Z,96643.86
2019-04-30T21:35:52.881Z,96633.63
2019-04-30T21:38:23.351Z,96635.91
2019-04-30T21:40:53.767Z,96641.09
2019-04-30T21:43:24.184Z,96633.67
2019-04-30T21:45:54.553Z,96636.59
2019-04-30T21:48:25.110Z,96638.97
2019-04-30T21:50:55.586Z,96636.73
2019-04-30T21:53:25.998Z,96630.20
2019-04-30T21:55:56.442Z,96635.66
2019-04-30T21:58:28.823Z,96635.77
2019-04-30T22:01:25.905Z,96635.84
2019-04-30T22:03:56.719Z,96635.88
2019-04-30T22:06:27.008Z,96639.55
2019-04-30T22:08:58.564Z,96647.61
2019-04-30T22:11:29.742Z,96643.73
2019-04-30T22:14:00.282Z,96644.70
2019-04-30T22:16:30.800Z,96645.06
2019-04-30T22:19:01.224Z,96641.13
2019-04-30T22:21:31.707Z,96642.93
2019-04-30T22:24:02.149Z,96644.80
2019-04-30T22:26:32.576Z,96643.90
2019-04-30T22:29:03.017Z,96640.66
2019-04-30T22:31:33.470Z,96644.02
2019-04-30T22:34:03.938Z,96648.04
2019-04-30T22:36:42.040Z,96642.46
2019-04-30T22:39:25.659Z,96644.05
2019-04-30T22:42:29.780Z,96648.11
2019-04-30T22:45:01.283Z,96643.57
2019-04-30T22:47:32.027Z,96639.43
2019-04-30T22:50:02.545Z,96632.72
2019-04-30T22:52:33.026Z,96637.62
2019-04-30T22:55:03.534Z,96633.95
2019-04-30T22:57:33.975Z,96636.66
2019-04-30T23:00:05.862Z,96630.52
2019-04-30T23:02:42.708Z,96631.25
2019-04-30T23:05:15.689Z,96625.20
2019-04-30T23:07:46.299Z,96622.16
2019-04-30T23:10:18.387Z,96623.14
2019-04-30T23:12:48.757Z,96621.55
2019-04-30T23:15:20.395Z,96618.30
2019-04-30T23:17:50.945Z,96620.95
2019-04-30T23:20:21.319Z,96607.88
2019-04-30T23:22:51.608Z,96612.19
2019-04-30T23:25:22.035Z,96615.83
2019-04-30T23:27:52.461Z,96614.41
2019-04-30T23:30:22.881Z,96611.33
2019-04-30T23:32:53.366Z,96610.02
2019-04-30T23:35:23.880Z,96611.17
2019-04-30T23:37:54.343Z,96609.06
2019-04-30T23:40:32.887Z,96603.03
2019-04-30T23:43:03.304Z,96603.21
2019-04-30T23:45:34.578Z,96602.56
2019-04-30T23:48:05.138Z,96607.15
2019-04-30T23:53:24.952Z,96605.84
2019-04-30T23:55:55.250Z,96605.55
2019-04-30T23:58:25.729Z,96606.84
